Flight Track Log - Related Links

Times and Time Zones

All times are in EDT time to prevent confusion due to time zone crossing. See the FLG3776 flight status page for this flight to view local times or setup timezone preferences in your user account.

Time Position Orientation Groundspeed Altitude Reporting Facility
EDT Latitude Longitude Course Direction KTS MPH feet Rate Location/Type
Sun 09:56:18 PM 44.8667 -93.1833 117° Southeast 161 185 1,500  Level Minneapolis TRACON
Sun 09:57:18 PM 44.8500 -93.1167 109° East 220 253 2,800 1,338 Climbing Minneapolis TRACON
Sun 09:58:00 PM 44.7403 -92.7504 110° East  Level Estimated
Sun 09:58:28 PM 44.8186 -93.0408 120° Southeast 243 280 4,400  Level Minneapolis Center
Sun 09:59:00 PM 44.6927 -92.5938 118° Southeast  Level Estimated
Sun 09:59:30 PM 44.7700 -92.8900 114° Southeast 310 357 7,100  Level Minneapolis Center
Sun 10:00:00 PM 44.6449 -92.4375 115° Southeast  Level Estimated
Sun 10:00:31 PM 44.7347 -92.7772 114° Southeast 316 364 9,700  Level Minneapolis Center
Sun 10:01:00 PM 44.5808 -92.2845 117° Southeast  Level FlightAware Approximate
Sun 10:01:33 PM 44.6981 -92.6583 113° Southeast 335 386 11,500  Level Minneapolis Center
Sun 10:02:35 PM 44.6564 -92.5261 114° Southeast 371 427 13,000 1,463 Climbing Minneapolis Center
Sun 10:03:36 PM 44.6064 -92.3903 117° Southeast 391 450 14,500 1,463 Climbing Minneapolis Center
Sun 10:04:38 PM 44.5522 -92.2544 119° Southeast 400 460 16,000 1,463 Climbing Minneapolis Center
Sun 10:05:39 PM 44.4981 -92.1136 118° Southeast 409 471 17,500 1,512 Climbing Minneapolis Center
Sun 10:06:41 PM 44.4433 -91.9711 118° Southeast 414 476 19,100 1,659 Climbing Minneapolis Center
Sun 10:07:42 PM 44.3761 -91.8011 119° Southeast 417 480 20,900 1,415 Climbing Minneapolis Center
Sun 10:08:44 PM 44.3197 -91.6569 119° Southeast 423 487 22,000 1,024 Climbing Minneapolis Center
Sun 10:09:45 PM 44.2625 -91.5089 118° Southeast 430 495 23,000 976 Climbing Minneapolis Center
Sun 10:10:47 PM 44.2017 -91.3625 120° Southeast 434 499 24,000 976 Climbing Minneapolis Center
Sun 10:11:48 PM 44.1444 -91.2111 118° Southeast 439 505 25,000 976 Climbing Minneapolis Center
Sun 10:12:50 PM 44.0850 -91.0606 119° Southeast 442 509 26,000 780 Climbing Minneapolis Center
Sun 10:13:51 PM 44.0247 -90.9125 119° Southeast 444 511 26,600 537 Climbing Minneapolis Center
Sun 10:14:53 PM 43.9628 -90.7589 119° Southeast 453 521 27,100 522 Climbing Minneapolis Center
Sun 10:15:46 PM 43.8972 -90.6028 120° Southeast 468 539 27,600 522 Climbing Chicago Center
Sun 10:16:48 PM 43.8336 -90.4447 119° Southeast 473 544 28,100 504 Climbing Chicago Center
Sun 10:17:57 PM 43.7625 -90.2461 116° Southeast 481 554 28,700 504 Climbing Minneapolis Center
Sun 10:18:59 PM 43.7094 -90.0561 111° Southeast 486 559 29,200 526 Climbing Minneapolis Center
Sun 10:19:51 PM 43.6650 -89.9125 113° Southeast 488 562 29,700 531 Climbing Chicago Center
Sun 10:20:52 PM 43.6122 -89.7397 113° Southeast 488 562 30,200 488 Climbing Chicago Center
Sun 10:21:54 PM 43.5597 -89.5675 113° Southeast 488 562 30,700 390 Climbing Chicago Center
Sun 10:22:55 PM 43.5072 -89.3958 113° Southeast 487 560 31,000 148 Climbing Chicago Center
Sun 10:23:56 PM 43.4533 -89.2208 113° Southeast 495 570 31,000  Level Chicago Center
Sun 10:24:57 PM 43.3978 -89.0447 113° Southeast 501 577 31,000  Level Chicago Center
Sun 10:25:58 PM 43.3325 -88.8372 113° Southeast 508 585 31,000  Level Chicago Center
Sun 10:26:59 PM 43.2761 -88.6606 114° Southeast 512 589 31,000  Level Chicago Center
Sun 10:28:00 PM 43.2194 -88.4817 113° Southeast 519 597 31,000  Level Chicago Center
Sun 10:29:01 PM 43.1631 -88.3019 113° Southeast 520 598 31,000 -341 Level Chicago Center
Sun 10:30:03 PM 43.1056 -88.1236 114° Southeast 517 595 30,300 -829 Descending Chicago Center
Sun 10:31:04 PM 43.0464 -87.9411 114° Southeast 523 602 29,300 -984 Descending Chicago Center
Sun 10:32:05 PM 42.9875 -87.7611 114° Southeast 519 597 28,300 -1,033 Descending Chicago Center
Sun 10:33:06 PM 42.9200 -87.5567 114° Southeast 508 585 27,200 -1,180 Descending Chicago Center
Sun 10:34:07 PM 42.8622 -87.3811 114° Southeast 507 583 25,900 -1,279 Descending Chicago Center
Sun 10:35:08 PM 42.8119 -87.2319 115° Southeast 500 575 24,600 -1,377 Descending Chicago Center
Sun 10:36:09 PM 42.7556 -87.0636 114° Southeast 492 566 23,100 -1,279 Descending Chicago Center
Sun 10:37:10 PM 42.7017 -86.9033 115° Southeast 474 545 22,000 -541 Descending Chicago Center
Sun 10:38:11 PM 42.6392 -86.7192 115° Southeast 453 521 22,000 -590 Level Chicago Center
Sun 10:39:12 PM 42.5853 -86.5644 115° Southeast 455 524 20,800 -1,377 Descending Chicago Center
Sun 10:40:13 PM 42.5331 -86.4094 115° Southeast 456 525 19,200 -1,854 Descending Chicago Center
Sun 10:41:15 PM 42.4825 -86.2650 115° Southeast 434 499 17,000 -2,195 Descending Chicago Center
Sun 10:42:16 PM 42.4342 -86.1253 115° Southeast 418 481 14,700 -2,262 Descending Chicago Center
Sun 10:43:17 PM 42.3869 -85.9897 115° Southeast 404 465 12,400 -1,820 Descending Chicago Center
Sun 10:44:18 PM 42.3811 -85.8572 93° East 362 417 11,000 -1,475 Descending Chicago Center
Sun 10:45:19 PM 42.3883 -85.7447 85° East 314 361 9,400 -1,770 Descending Chicago Center
Sun 10:46:20 PM 42.4067 -85.6483 76° East 284 327 7,400 -2,262 Descending Chicago Center
Sun 10:47:21 PM 42.4356 -85.5444 69° East 270 311 4,800 -1,820 Descending Chicago Center
Sun 10:48:22 PM 42.3783 -85.5333 172° South 227 261 3,700 -1,131 Descending Chicago Center
Sun 10:49:23 PM 42.3289 -85.5539 197° South 196 226 2,500 -934 Descending Chicago Center
Sun 10:50:24 PM 42.2908 -85.5622 189° South 148 170 1,800 -639 Descending Chicago Center
Sun 10:51:25 PM 42.2556 -85.5575 174° South 142 163 1,200 -393 Descending Chicago Center
Sun 10:52:26 PM 42.2164 -85.5481 170° South 142 163 1,000 -197 Descending Chicago Center

Login

Don't have an account? Register now (free) for customized features, flight alerts, and more!